sensor_id;sensor_type;location;lat;lon;timestamp;temperature;humidity
34698;DHT22;61391;50.922;6.928;2022-09-03T00:00:25;19.00;93.10
34698;DHT22;61391;50.922;6.928;2022-09-03T00:06:21;19.00;93.60
34698;DHT22;61391;50.922;6.928;2022-09-03T00:08:54;18.80;93.80
34698;DHT22;61391;50.922;6.928;2022-09-03T00:11:28;18.90;93.90
34698;DHT22;61391;50.922;6.928;2022-09-03T00:14:05;18.90;93.90
34698;DHT22;61391;50.922;6.928;2022-09-03T00:16:58;18.60;94.70
34698;DHT22;61391;50.922;6.928;2022-09-03T00:19:28;18.60;95.30
34698;DHT22;61391;50.922;6.928;2022-09-03T00:22:01;18.50;95.70
34698;DHT22;61391;50.922;6.928;2022-09-03T00:24:30;18.40;96.10
34698;DHT22;61391;50.922;6.928;2022-09-03T00:27:00;18.40;96.40
34698;DHT22;61391;50.922;6.928;2022-09-03T00:29:49;18.40;96.60
34698;DHT22;61391;50.922;6.928;2022-09-03T00:32:20;18.40;96.90
34698;DHT22;61391;50.922;6.928;2022-09-03T00:34:55;18.30;97.30
34698;DHT22;61391;50.922;6.928;2022-09-03T00:37:22;18.40;97.70
34698;DHT22;61391;50.922;6.928;2022-09-03T00:39:47;18.40;98.00
34698;DHT22;61391;50.922;6.928;2022-09-03T00:42:34;18.30;98.50
34698;DHT22;61391;50.922;6.928;2022-09-03T00:45:40;18.30;98.80
34698;DHT22;61391;50.922;6.928;2022-09-03T00:48:12;18.20;99.70
34698;DHT22;61391;50.922;6.928;2022-09-03T00:50:45;18.20;99.90
34698;DHT22;61391;50.922;6.928;2022-09-03T00:53:31;18.10;99.90
34698;DHT22;61391;50.922;6.928;2022-09-03T01:02:02;18.00;99.90
34698;DHT22;61391;50.922;6.928;2022-09-03T01:07:40;17.90;99.90
34698;DHT22;61391;50.922;6.928;2022-09-03T01:10:29;18.00;99.90
34698;DHT22;61391;50.922;6.928;2022-09-03T01:27:01;17.90;99.90
34698;DHT22;61391;50.922;6.928;2022-09-03T01:30:12;17.90;99.90
34698;DHT22;61391;50.922;6.928;2022-09-03T01:37:57;17.70;99.90
34698;DHT22;61391;50.922;6.928;2022-09-03T01:43:37;17.90;99.90
34698;DHT22;61391;50.922;6.928;2022-09-03T01:46:21;18.10;99.90
34698;DHT22;61391;50.922;6.928;2022-09-03T01:49:23;17.90;99.90
34698;DHT22;61391;50.922;6.928;2022-09-03T01:57:50;17.50;99.90
34698;DHT22;61391;50.922;6.928;2022-09-03T02:00:21;17.50;99.90
34698;DHT22;61391;50.922;6.928;2022-09-03T02:02:48;17.50;99.90
34698;DHT22;61391;50.922;6.928;2022-09-03T02:05:21;17.40;99.90
34698;DHT22;61391;50.922;6.928;2022-09-03T02:08:00;17.40;99.90
34698;DHT22;61391;50.922;6.928;2022-09-03T02:10:37;17.30;99.90
34698;DHT22;61391;50.922;6.928;2022-09-03T02:13:09;17.30;99.90
34698;DHT22;61391;50.922;6.928;2022-09-03T02:15:38;17.30;99.90
34698;DHT22;61391;50.922;6.928;2022-09-03T02:18:18;17.30;99.90
34698;DHT22;61391;50.922;6.928;2022-09-03T02:20:45;17.40;99.90
34698;DHT22;61391;50.922;6.928;2022-09-03T02:23:12;17.40;99.90
34698;DHT22;61391;50.922;6.928;2022-09-03T02:25:43;17.40;99.90
34698;DHT22;61391;50.922;6.928;2022-09-03T02:28:09;17.30;99.90
34698;DHT22;61391;50.922;6.928;2022-09-03T02:30:35;17.20;99.90
34698;DHT22;61391;50.922;6.928;2022-09-03T02:33:01;17.20;99.90
34698;DHT22;61391;50.922;6.928;2022-09-03T02:35:27;17.20;99.90
34698;DHT22;61391;50.922;6.928;2022-09-03T02:37:53;17.30;99.90
34698;DHT22;61391;50.922;6.928;2022-09-03T02:40:18;17.50;99.90
34698;DHT22;61391;50.922;6.928;2022-09-03T02:42:45;17.30;99.90
34698;DHT22;61391;50.922;6.928;2022-09-03T02:45:27;17.20;99.90
34698;DHT22;61391;50.922;6.928;2022-09-03T02:47:58;17.20;99.90
34698;DHT22;61391;50.922;6.928;2022-09-03T02:50:24;17.20;99.90
34698;DHT22;61391;50.922;6.928;2022-09-03T02:52:51;17.30;99.90
34698;DHT22;61391;50.922;6.928;2022-09-03T02:55:17;17.30;99.90
34698;DHT22;61391;50.922;6.928;2022-09-03T02:57:43;17.30;99.90
34698;DHT22;61391;50.922;6.928;2022-09-03T03:00:10;17.20;99.90
34698;DHT22;61391;50.922;6.928;2022-09-03T03:02:37;17.20;99.90
34698;DHT22;61391;50.922;6.928;2022-09-03T03:05:04;17.10;99.90
34698;DHT22;61391;50.922;6.928;2022-09-03T03:07:33;17.10;99.90
34698;DHT22;61391;50.922;6.928;2022-09-03T03:10:00;17.10;99.90
34698;DHT22;61391;50.922;6.928;2022-09-03T03:12:26;17.10;99.90
34698;DHT22;61391;50.922;6.928;2022-09-03T03:14:51;17.20;99.90
34698;DHT22;61391;50.922;6.928;2022-09-03T03:17:17;17.20;99.90
34698;DHT22;61391;50.922;6.928;2022-09-03T03:19:42;17.30;99.90
34698;DHT22;61391;50.922;6.928;2022-09-03T03:22:08;17.20;99.90
34698;DHT22;61391;50.922;6.928;2022-09-03T03:24:33;17.20;99.90
34698;DHT22;61391;50.922;6.928;2022-09-03T03:26:59;17.20;99.90
34698;DHT22;61391;50.922;6.928;2022-09-03T03:29:24;17.20;99.90
34698;DHT22;61391;50.922;6.928;2022-09-03T03:31:51;17.20;99.90
34698;DHT22;61391;50.922;6.928;2022-09-03T03:34:16;17.20;99.90
34698;DHT22;61391;50.922;6.928;2022-09-03T03:36:42;17.10;99.90
34698;DHT22;61391;50.922;6.928;2022-09-03T03:39:07;17.30;99.90
34698;DHT22;61391;50.922;6.928;2022-09-03T03:41:34;17.30;99.90
34698;DHT22;61391;50.922;6.928;2022-09-03T03:44:03;17.30;99.90
34698;DHT22;61391;50.922;6.928;2022-09-03T03:46:31;17.30;99.90
34698;DHT22;61391;50.922;6.928;2022-09-03T03:48:57;17.30;99.90
34698;DHT22;61391;50.922;6.928;2022-09-03T03:51:24;17.30;99.90
34698;DHT22;61391;50.922;6.928;2022-09-03T03:53:53;17.20;99.90
34698;DHT22;61391;50.922;6.928;2022-09-03T03:56:20;17.20;99.90
34698;DHT22;61391;50.922;6.928;2022-09-03T03:58:46;17.20;99.90
34698;DHT22;61391;50.922;6.928;2022-09-03T04:01:21;17.30;99.90
34698;DHT22;61391;50.922;6.928;2022-09-03T04:03:47;17.30;99.90
34698;DHT22;61391;50.922;6.928;2022-09-03T04:06:16;17.20;99.90
34698;DHT22;61391;50.922;6.928;2022-09-03T04:08:43;17.20;99.90
34698;DHT22;61391;50.922;6.928;2022-09-03T04:11:11;17.30;99.90
34698;DHT22;61391;50.922;6.928;2022-09-03T04:13:39;17.20;99.90
34698;DHT22;61391;50.922;6.928;2022-09-03T04:16:06;17.30;99.90
34698;DHT22;61391;50.922;6.928;2022-09-03T04:18:33;17.30;99.90
34698;DHT22;61391;50.922;6.928;2022-09-03T04:21:05;17.30;99.90
34698;DHT22;61391;50.922;6.928;2022-09-03T04:23:35;17.30;99.90
34698;DHT22;61391;50.922;6.928;2022-09-03T04:26:01;17.50;99.90
34698;DHT22;61391;50.922;6.928;2022-09-03T04:28:27;17.40;99.90
34698;DHT22;61391;50.922;6.928;2022-09-03T04:30:52;17.30;99.90
34698;DHT22;61391;50.922;6.928;2022-09-03T04:33:18;17.30;99.90
34698;DHT22;61391;50.922;6.928;2022-09-03T04:39:06;17.20;99.90
34698;DHT22;61391;50.922;6.928;2022-09-03T04:41:32;17.30;99.90
34698;DHT22;61391;50.922;6.928;2022-09-03T04:43:58;17.20;99.90
34698;DHT22;61391;50.922;6.928;2022-09-03T04:46:26;17.30;99.90
34698;DHT22;61391;50.922;6.928;2022-09-03T04:48:54;17.20;99.90
34698;DHT22;61391;50.922;6.928;2022-09-03T04:51:21;17.20;99.90
34698;DHT22;61391;50.922;6.928;2022-09-03T04:53:52;17.20;99.90
34698;DHT22;61391;50.922;6.928;2022-09-03T04:56:24;17.30;99.90
34698;DHT22;61391;50.922;6.928;2022-09-03T04:58:59;17.20;99.90
34698;DHT22;61391;50.922;6.928;2022-09-03T05:01:27;17.20;99.90
34698;DHT22;61391;50.922;6.928;2022-09-03T05:03:55;17.20;99.90
34698;DHT22;61391;50.922;6.928;2022-09-03T05:06:20;17.30;99.90
34698;DHT22;61391;50.922;6.928;2022-09-03T05:08:50;17.10;99.90
34698;DHT22;61391;50.922;6.928;2022-09-03T05:11:16;17.10;99.90
34698;DHT22;61391;50.922;6.928;2022-09-03T05:13:46;17.20;99.90
34698;DHT22;61391;50.922;6.928;2022-09-03T05:16:12;17.10;99.90
34698;DHT22;61391;50.922;6.928;2022-09-03T05:18:38;17.10;99.90
34698;DHT22;61391;50.922;6.928;2022-09-03T05:21:09;17.20;99.90
34698;DHT22;61391;50.922;6.928;2022-09-03T05:23:39;17.30;99.90
34698;DHT22;61391;50.922;6.928;2022-09-03T05:26:08;17.40;99.90
34698;DHT22;61391;50.922;6.928;2022-09-03T05:28:35;17.20;99.90
34698;DHT22;61391;50.922;6.928;2022-09-03T05:31:06;17.20;99.90
34698;DHT22;61391;50.922;6.928;2022-09-03T05:33:37;17.20;99.90
34698;DHT22;61391;50.922;6.928;2022-09-03T05:36:05;17.30;99.90
34698;DHT22;61391;50.922;6.928;2022-09-03T05:38:30;17.30;99.90
34698;DHT22;61391;50.922;6.928;2022-09-03T05:41:00;17.30;99.90
34698;DHT22;61391;50.922;6.928;2022-09-03T05:43:27;17.30;99.90
34698;DHT22;61391;50.922;6.928;2022-09-03T05:46:00;17.30;99.90
34698;DHT22;61391;50.922;6.928;2022-09-03T05:48:30;17.40;99.90
34698;DHT22;61391;50.922;6.928;2022-09-03T05:51:06;17.50;99.90
34698;DHT22;61391;50.922;6.928;2022-09-03T05:53:35;17.50;99.90
34698;DHT22;61391;50.922;6.928;2022-09-03T05:56:05;17.40;99.90
34698;DHT22;61391;50.922;6.928;2022-09-03T05:58:32;17.50;99.90
34698;DHT22;61391;50.922;6.928;2022-09-03T06:00:58;17.50;99.90
34698;DHT22;61391;50.922;6.928;2022-09-03T06:03:24;17.60;99.90
34698;DHT22;61391;50.922;6.928;2022-09-03T06:05:53;17.60;99.90
34698;DHT22;61391;50.922;6.928;2022-09-03T06:08:19;17.50;99.90
34698;DHT22;61391;50.922;6.928;2022-09-03T06:10:46;17.50;99.90
34698;DHT22;61391;50.922;6.928;2022-09-03T06:13:11;17.60;99.90
34698;DHT22;61391;50.922;6.928;2022-09-03T06:15:37;17.60;99.90
34698;DHT22;61391;50.922;6.928;2022-09-03T06:18:03;17.60;99.90
34698;DHT22;61391;50.922;6.928;2022-09-03T06:20:29;17.70;99.90
34698;DHT22;61391;50.922;6.928;2022-09-03T06:22:55;17.70;99.90
34698;DHT22;61391;50.922;6.928;2022-09-03T06:25:20;17.70;99.90
34698;DHT22;61391;50.922;6.928;2022-09-03T06:27:46;17.70;99.90
34698;DHT22;61391;50.922;6.928;2022-09-03T06:30:13;17.70;99.90
34698;DHT22;61391;50.922;6.928;2022-09-03T06:32:43;17.90;99.90
34698;DHT22;61391;50.922;6.928;2022-09-03T06:35:09;18.00;99.90
34698;DHT22;61391;50.922;6.928;2022-09-03T06:37:39;18.10;99.90
34698;DHT22;61391;50.922;6.928;2022-09-03T06:40:05;18.00;99.90
34698;DHT22;61391;50.922;6.928;2022-09-03T06:42:32;18.10;99.90
34698;DHT22;61391;50.922;6.928;2022-09-03T06:44:59;18.20;99.90
34698;DHT22;61391;50.922;6.928;2022-09-03T06:47:24;18.20;99.90
34698;DHT22;61391;50.922;6.928;2022-09-03T06:49:50;18.30;99.90
34698;DHT22;61391;50.922;6.928;2022-09-03T06:52:16;18.50;99.90
34698;DHT22;61391;50.922;6.928;2022-09-03T06:54:41;18.50;99.90
34698;DHT22;61391;50.922;6.928;2022-09-03T06:57:07;18.50;99.90
34698;DHT22;61391;50.922;6.928;2022-09-03T06:59:32;18.70;99.90
34698;DHT22;61391;50.922;6.928;2022-09-03T07:01:58;18.60;99.90
34698;DHT22;61391;50.922;6.928;2022-09-03T07:04:24;18.60;99.90
34698;DHT22;61391;50.922;6.928;2022-09-03T07:06:52;18.70;99.90
34698;DHT22;61391;50.922;6.928;2022-09-03T07:09:17;18.90;99.90
34698;DHT22;61391;50.922;6.928;2022-09-03T07:11:43;18.90;99.90
34698;DHT22;61391;50.922;6.928;2022-09-03T07:14:11;18.90;99.90
34698;DHT22;61391;50.922;6.928;2022-09-03T07:16:37;19.00;99.90
34698;DHT22;61391;50.922;6.928;2022-09-03T07:19:04;19.30;99.90
34698;DHT22;61391;50.922;6.928;2022-09-03T07:21:32;19.20;99.90
34698;DHT22;61391;50.922;6.928;2022-09-03T07:24:06;19.40;99.90
34698;DHT22;61391;50.922;6.928;2022-09-03T07:26:34;19.30;99.90
34698;DHT22;61391;50.922;6.928;2022-09-03T07:29:00;19.40;99.90
34698;DHT22;61391;50.922;6.928;2022-09-03T07:31:28;19.20;99.90
34698;DHT22;61391;50.922;6.928;2022-09-03T07:34:04;19.40;99.90
34698;DHT22;61391;50.922;6.928;2022-09-03T07:36:35;19.40;99.90
34698;DHT22;61391;50.922;6.928;2022-09-03T07:39:03;19.70;99.90
34698;DHT22;61391;50.922;6.928;2022-09-03T07:41:29;19.80;99.90
34698;DHT22;61391;50.922;6.928;2022-09-03T07:43:57;20.00;99.90
34698;DHT22;61391;50.922;6.928;2022-09-03T07:46:25;20.20;99.90
34698;DHT22;61391;50.922;6.928;2022-09-03T07:48:57;20.50;99.90
34698;DHT22;61391;50.922;6.928;2022-09-03T07:51:25;20.50;99.90
34698;DHT22;61391;50.922;6.928;2022-09-03T07:53:55;20.90;99.90
34698;DHT22;61391;50.922;6.928;2022-09-03T07:56:22;20.90;99.90
34698;DHT22;61391;50.922;6.928;2022-09-03T07:58:48;20.80;99.90
34698;DHT22;61391;50.922;6.928;2022-09-03T08:01:16;21.00;99.90
34698;DHT22;61391;50.922;6.928;2022-09-03T08:03:44;21.10;99.90
34698;DHT22;61391;50.922;6.928;2022-09-03T08:06:10;21.00;99.90
34698;DHT22;61391;50.922;6.928;2022-09-03T08:08:37;21.40;99.90
34698;DHT22;61391;50.922;6.928;2022-09-03T08:11:11;21.30;99.90
34698;DHT22;61391;50.922;6.928;2022-09-03T08:16:09;20.80;99.90
34698;DHT22;61391;50.922;6.928;2022-09-03T08:18:35;21.10;99.90
34698;DHT22;61391;50.922;6.928;2022-09-03T08:21:12;21.40;99.90
34698;DHT22;61391;50.922;6.928;2022-09-03T08:23:49;21.70;99.90
34698;DHT22;61391;50.922;6.928;2022-09-03T08:26:16;21.50;99.90
34698;DHT22;61391;50.922;6.928;2022-09-03T08:28:43;21.00;99.90
34698;DHT22;61391;50.922;6.928;2022-09-03T08:33:39;21.20;99.90
34698;DHT22;61391;50.922;6.928;2022-09-03T08:36:09;21.10;99.90
34698;DHT22;61391;50.922;6.928;2022-09-03T08:38:37;21.10;99.90
34698;DHT22;61391;50.922;6.928;2022-09-03T08:41:10;20.90;99.90
34698;DHT22;61391;50.922;6.928;2022-09-03T08:43:56;20.70;99.90
34698;DHT22;61391;50.922;6.928;2022-09-03T08:52:17;20.20;99.90
34698;DHT22;61391;50.922;6.928;2022-09-03T08:54:46;20.10;99.90
34698;DHT22;61391;50.922;6.928;2022-09-03T08:57:13;20.10;99.90
34698;DHT22;61391;50.922;6.928;2022-09-03T08:59:39;20.10;99.90
34698;DHT22;61391;50.922;6.928;2022-09-03T09:02:30;19.90;99.90
34698;DHT22;61391;50.922;6.928;2022-09-03T09:05:08;20.10;99.90
34698;DHT22;61391;50.922;6.928;2022-09-03T09:07:51;20.10;99.90
34698;DHT22;61391;50.922;6.928;2022-09-03T09:10:43;19.70;99.90
34698;DHT22;61391;50.922;6.928;2022-09-03T09:13:50;19.60;99.90
34698;DHT22;61391;50.922;6.928;2022-09-03T09:16:39;19.20;99.90
34698;DHT22;61391;50.922;6.928;2022-09-03T09:21:59;19.30;99.90
34698;DHT22;61391;50.922;6.928;2022-09-03T09:24:43;19.10;99.90
34698;DHT22;61391;50.922;6.928;2022-09-03T09:27:13;19.10;99.90
34698;DHT22;61391;50.922;6.928;2022-09-03T09:29:41;18.90;99.90
34698;DHT22;61391;50.922;6.928;2022-09-03T09:32:09;18.90;99.90
34698;DHT22;61391;50.922;6.928;2022-09-03T09:34:37;18.90;99.90
34698;DHT22;61391;50.922;6.928;2022-09-03T09:37:07;19.10;99.90
34698;DHT22;61391;50.922;6.928;2022-09-03T09:39:33;19.20;99.90
34698;DHT22;61391;50.922;6.928;2022-09-03T09:42:01;19.30;99.90
34698;DHT22;61391;50.922;6.928;2022-09-03T09:44:32;19.00;99.90
34698;DHT22;61391;50.922;6.928;2022-09-03T09:47:25;18.90;99.90
34698;DHT22;61391;50.922;6.928;2022-09-03T09:50:00;19.10;99.90
34698;DHT22;61391;50.922;6.928;2022-09-03T09:52:28;19.10;99.90
34698;DHT22;61391;50.922;6.928;2022-09-03T09:55:12;19.50;99.90
34698;DHT22;61391;50.922;6.928;2022-09-03T09:57:39;19.90;99.90
34698;DHT22;61391;50.922;6.928;2022-09-03T10:00:16;20.60;99.90
34698;DHT22;61391;50.922;6.928;2022-09-03T10:02:52;21.40;99.90
34698;DHT22;61391;50.922;6.928;2022-09-03T10:05:27;21.70;99.90
34698;DHT22;61391;50.922;6.928;2022-09-03T10:08:00;21.40;99.90
34698;DHT22;61391;50.922;6.928;2022-09-03T10:10:26;21.70;99.90
34698;DHT22;61391;50.922;6.928;2022-09-03T10:13:06;22.70;99.90
34698;DHT22;61391;50.922;6.928;2022-09-03T10:16:00;23.30;99.90
34698;DHT22;61391;50.922;6.928;2022-09-03T10:18:45;24.30;99.90
34698;DHT22;61391;50.922;6.928;2022-09-03T10:23:53;22.80;99.90
34698;DHT22;61391;50.922;6.928;2022-09-03T10:26:22;22.80;99.90
34698;DHT22;61391;50.922;6.928;2022-09-03T10:29:02;22.80;99.90
34698;DHT22;61391;50.922;6.928;2022-09-03T10:32:02;23.10;99.90
34698;DHT22;61391;50.922;6.928;2022-09-03T10:37:43;25.60;99.90
34698;DHT22;61391;50.922;6.928;2022-09-03T10:40:27;25.30;99.90
34698;DHT22;61391;50.922;6.928;2022-09-03T10:43:12;23.90;99.90
34698;DHT22;61391;50.922;6.928;2022-09-03T10:46:16;23.20;99.90
34698;DHT22;61391;50.922;6.928;2022-09-03T10:51:41;23.50;99.90
34698;DHT22;61391;50.922;6.928;2022-09-03T10:54:26;23.90;99.90
34698;DHT22;61391;50.922;6.928;2022-09-03T10:57:07;24.40;99.90
34698;DHT22;61391;50.922;6.928;2022-09-03T11:00:05;25.50;99.90
34698;DHT22;61391;50.922;6.928;2022-09-03T11:08:29;25.10;99.90
34698;DHT22;61391;50.922;6.928;2022-09-03T11:11:03;24.50;99.90
34698;DHT22;61391;50.922;6.928;2022-09-03T11:13:48;24.40;99.90
34698;DHT22;61391;50.922;6.928;2022-09-03T11:16:25;24.20;99.90
34698;DHT22;61391;50.922;6.928;2022-09-03T11:19:03;24.60;99.90
34698;DHT22;61391;50.922;6.928;2022-09-03T11:21:30;24.30;99.90
34698;DHT22;61391;50.922;6.928;2022-09-03T11:24:20;24.90;99.90
34698;DHT22;61391;50.922;6.928;2022-09-03T11:26:54;25.10;99.90
34698;DHT22;61391;50.922;6.928;2022-09-03T11:29:58;24.40;99.90
34698;DHT22;61391;50.922;6.928;2022-09-03T11:32:49;23.80;99.90
34698;DHT22;61391;50.922;6.928;2022-09-03T11:38:00;23.40;99.90
34698;DHT22;61391;50.922;6.928;2022-09-03T11:43:33;23.60;99.90
34698;DHT22;61391;50.922;6.928;2022-09-03T11:46:10;23.60;99.90
34698;DHT22;61391;50.922;6.928;2022-09-03T11:48:45;23.60;99.90
34698;DHT22;61391;50.922;6.928;2022-09-03T11:56:36;23.00;99.90
34698;DHT22;61391;50.922;6.928;2022-09-03T12:01:50;23.40;99.90
34698;DHT22;61391;50.922;6.928;2022-09-03T12:04:23;23.30;99.90
34698;DHT22;61391;50.922;6.928;2022-09-03T12:07:17;23.50;99.90
34698;DHT22;61391;50.922;6.928;2022-09-03T12:10:07;23.30;99.90
34698;DHT22;61391;50.922;6.928;2022-09-03T12:12:47;23.30;99.90
34698;DHT22;61391;50.922;6.928;2022-09-03T12:18:30;23.40;99.90
34698;DHT22;61391;50.922;6.928;2022-09-03T12:23:33;23.80;99.90
34698;DHT22;61391;50.922;6.928;2022-09-03T12:26:07;23.70;99.90
34698;DHT22;61391;50.922;6.928;2022-09-03T12:28:37;23.60;99.90
34698;DHT22;61391;50.922;6.928;2022-09-03T12:31:30;23.70;99.90
34698;DHT22;61391;50.922;6.928;2022-09-03T12:34:00;24.00;99.90
34698;DHT22;61391;50.922;6.928;2022-09-03T12:36:39;24.20;99.90
34698;DHT22;61391;50.922;6.928;2022-09-03T12:39:19;24.00;99.90
34698;DHT22;61391;50.922;6.928;2022-09-03T12:44:38;24.00;99.90
34698;DHT22;61391;50.922;6.928;2022-09-03T12:47:11;24.00;99.90
34698;DHT22;61391;50.922;6.928;2022-09-03T12:49:39;23.90;99.90
34698;DHT22;61391;50.922;6.928;2022-09-03T12:52:10;24.40;99.90
34698;DHT22;61391;50.922;6.928;2022-09-03T12:57:26;24.10;99.90
34698;DHT22;61391;50.922;6.928;2022-09-03T12:59:56;24.10;99.90
34698;DHT22;61391;50.922;6.928;2022-09-03T13:02:27;24.50;99.90
34698;DHT22;61391;50.922;6.928;2022-09-03T13:04:57;24.40;99.90
34698;DHT22;61391;50.922;6.928;2022-09-03T13:07:30;24.20;99.90
34698;DHT22;61391;50.922;6.928;2022-09-03T13:10:02;24.30;99.90
34698;DHT22;61391;50.922;6.928;2022-09-03T13:12:40;24.60;99.90
34698;DHT22;61391;50.922;6.928;2022-09-03T13:15:10;24.50;99.90
34698;DHT22;61391;50.922;6.928;2022-09-03T13:29:05;25.10;99.90
34698;DHT22;61391;50.922;6.928;2022-09-03T13:34:00;25.10;99.90
34698;DHT22;61391;50.922;6.928;2022-09-03T13:36:47;25.30;99.90
34698;DHT22;61391;50.922;6.928;2022-09-03T13:39:23;25.40;99.90
34698;DHT22;61391;50.922;6.928;2022-09-03T13:42:00;25.30;99.90
34698;DHT22;61391;50.922;6.928;2022-09-03T13:44:46;25.40;99.90
34698;DHT22;61391;50.922;6.928;2022-09-03T13:47:34;25.10;99.90
34698;DHT22;61391;50.922;6.928;2022-09-03T13:50:07;25.10;99.90
34698;DHT22;61391;50.922;6.928;2022-09-03T13:53:03;25.00;99.90
34698;DHT22;61391;50.922;6.928;2022-09-03T13:57:56;25.10;99.90
34698;DHT22;61391;50.922;6.928;2022-09-03T14:00:39;24.80;99.90
34698;DHT22;61391;50.922;6.928;2022-09-03T14:03:30;24.60;99.90
34698;DHT22;61391;50.922;6.928;2022-09-03T14:19:57;24.60;99.90
34698;DHT22;61391;50.922;6.928;2022-09-03T14:22:25;25.10;99.90
34698;DHT22;61391;50.922;6.928;2022-09-03T14:25:15;25.10;99.90
34698;DHT22;61391;50.922;6.928;2022-09-03T14:27:42;25.30;99.90
34698;DHT22;61391;50.922;6.928;2022-09-03T14:30:32;25.50;99.90
34698;DHT22;61391;50.922;6.928;2022-09-03T14:38:54;25.00;99.90
34698;DHT22;61391;50.922;6.928;2022-09-03T14:41:43;25.00;99.90
34698;DHT22;61391;50.922;6.928;2022-09-03T14:44:53;25.30;99.90
34698;DHT22;61391;50.922;6.928;2022-09-03T14:50:59;25.60;99.90
34698;DHT22;61391;50.922;6.928;2022-09-03T15:01:14;25.80;99.90
34698;DHT22;61391;50.922;6.928;2022-09-03T15:06:31;25.40;99.90
34698;DHT22;61391;50.922;6.928;2022-09-03T15:12:22;25.00;99.90
34698;DHT22;61391;50.922;6.928;2022-09-03T15:14:54;25.10;99.90
34698;DHT22;61391;50.922;6.928;2022-09-03T15:28:43;25.50;99.90
34698;DHT22;61391;50.922;6.928;2022-09-03T15:37:27;25.60;99.90
34698;DHT22;61391;50.922;6.928;2022-09-03T15:42:36;25.20;99.90
34698;DHT22;61391;50.922;6.928;2022-09-03T15:45:31;25.40;99.90
34698;DHT22;61391;50.922;6.928;2022-09-03T15:47:54;25.10;99.90
34698;DHT22;61391;50.922;6.928;2022-09-03T15:50:37;25.10;99.90
34698;DHT22;61391;50.922;6.928;2022-09-03T15:56:17;25.40;99.90
34698;DHT22;61391;50.922;6.928;2022-09-03T16:15:28;24.30;99.90
34698;DHT22;61391;50.922;6.928;2022-09-03T16:21:05;24.20;99.90
34698;DHT22;61391;50.922;6.928;2022-09-03T16:23:41;24.30;99.90
34698;DHT22;61391;50.922;6.928;2022-09-03T16:26:24;24.40;99.90
34698;DHT22;61391;50.922;6.928;2022-09-03T16:29:08;24.40;99.90
34698;DHT22;61391;50.922;6.928;2022-09-03T16:31:46;24.20;99.90
34698;DHT22;61391;50.922;6.928;2022-09-03T16:43:22;22.60;99.90
34698;DHT22;61391;50.922;6.928;2022-09-03T16:46:32;22.50;99.90
34698;DHT22;61391;50.922;6.928;2022-09-03T16:57:08;22.00;99.90
34698;DHT22;61391;50.922;6.928;2022-09-03T17:00:00;21.90;99.90
34698;DHT22;61391;50.922;6.928;2022-09-03T17:08:14;22.00;99.90
34698;DHT22;61391;50.922;6.928;2022-09-03T17:14:21;21.70;99.90
34698;DHT22;61391;50.922;6.928;2022-09-03T17:20:00;21.50;99.90
34698;DHT22;61391;50.922;6.928;2022-09-03T17:23:02;21.20;99.90
34698;DHT22;61391;50.922;6.928;2022-09-03T17:31:47;21.00;99.90
34698;DHT22;61391;50.922;6.928;2022-09-03T17:34:33;21.10;99.90
34698;DHT22;61391;50.922;6.928;2022-09-03T17:40:15;21.00;99.90
34698;DHT22;61391;50.922;6.928;2022-09-03T17:46:07;20.90;99.90
34698;DHT22;61391;50.922;6.928;2022-09-03T17:48:50;20.80;99.90
34698;DHT22;61391;50.922;6.928;2022-09-03T17:51:30;20.60;99.90
34698;DHT22;61391;50.922;6.928;2022-09-03T17:54:20;20.50;99.90
34698;DHT22;61391;50.922;6.928;2022-09-03T17:56:55;20.40;99.90
34698;DHT22;61391;50.922;6.928;2022-09-03T18:05:41;20.40;99.90
34698;DHT22;61391;50.922;6.928;2022-09-03T18:16:32;20.10;99.90
34698;DHT22;61391;50.922;6.928;2022-09-03T18:21:45;20.30;99.90
34698;DHT22;61391;50.922;6.928;2022-09-03T18:24:50;20.30;99.90
34698;DHT22;61391;50.922;6.928;2022-09-03T18:27:39;20.20;99.90
34698;DHT22;61391;50.922;6.928;2022-09-03T18:30:25;20.20;99.90
34698;DHT22;61391;50.922;6.928;2022-09-03T18:33:09;20.10;99.90
34698;DHT22;61391;50.922;6.928;2022-09-03T18:35:54;20.00;99.90
34698;DHT22;61391;50.922;6.928;2022-09-03T18:38:38;19.90;99.90
34698;DHT22;61391;50.922;6.928;2022-09-03T18:41:32;19.90;99.90
34698;DHT22;61391;50.922;6.928;2022-09-03T18:44:39;19.90;99.90
34698;DHT22;61391;50.922;6.928;2022-09-03T18:50:58;19.70;99.90
34698;DHT22;61391;50.922;6.928;2022-09-03T18:57:24;19.70;99.90
34698;DHT22;61391;50.922;6.928;2022-09-03T19:00:15;19.90;99.90
34698;DHT22;61391;50.922;6.928;2022-09-03T19:09:47;19.50;99.90
34698;DHT22;61391;50.922;6.928;2022-09-03T19:12:50;19.60;99.90
34698;DHT22;61391;50.922;6.928;2022-09-03T19:15:46;19.60;99.90
34698;DHT22;61391;50.922;6.928;2022-09-03T19:22:01;19.40;99.90
34698;DHT22;61391;50.922;6.928;2022-09-03T19:24:49;19.40;99.90
34698;DHT22;61391;50.922;6.928;2022-09-03T19:28:05;19.30;99.90
34698;DHT22;61391;50.922;6.928;2022-09-03T19:37:23;19.40;99.90
34698;DHT22;61391;50.922;6.928;2022-09-03T19:43:17;19.20;99.90
34698;DHT22;61391;50.922;6.928;2022-09-03T19:46:32;19.20;99.90
34698;DHT22;61391;50.922;6.928;2022-09-03T19:49:49;19.20;99.90
34698;DHT22;61391;50.922;6.928;2022-09-03T19:55:56;19.10;99.90
34698;DHT22;61391;50.922;6.928;2022-09-03T19:58:47;19.10;99.90
34698;DHT22;61391;50.922;6.928;2022-09-03T20:01:34;19.10;99.90
34698;DHT22;61391;50.922;6.928;2022-09-03T20:04:35;19.00;99.90
34698;DHT22;61391;50.922;6.928;2022-09-03T20:07:21;18.90;99.90
34698;DHT22;61391;50.922;6.928;2022-09-03T20:10:09;19.00;99.90
34698;DHT22;61391;50.922;6.928;2022-09-03T20:16:20;18.90;99.90
34698;DHT22;61391;50.922;6.928;2022-09-03T20:20:54;19.00;99.90
34698;DHT22;61391;50.922;6.928;2022-09-03T20:23:50;19.00;99.90
34698;DHT22;61391;50.922;6.928;2022-09-03T20:26:34;18.90;99.90
34698;DHT22;61391;50.922;6.928;2022-09-03T20:31:58;18.80;99.90
34698;DHT22;61391;50.922;6.928;2022-09-03T20:37:27;18.80;99.90
34698;DHT22;61391;50.922;6.928;2022-09-03T20:40:22;18.80;99.90
34698;DHT22;61391;50.922;6.928;2022-09-03T20:43:10;18.80;99.90
34698;DHT22;61391;50.922;6.928;2022-09-03T20:48:23;18.60;99.90
34698;DHT22;61391;50.922;6.928;2022-09-03T20:51:11;18.60;99.90
34698;DHT22;61391;50.922;6.928;2022-09-03T20:56:38;18.60;99.90
34698;DHT22;61391;50.922;6.928;2022-09-03T21:02:25;18.60;99.90
34698;DHT22;61391;50.922;6.928;2022-09-03T21:08:23;18.50;99.90
34698;DHT22;61391;50.922;6.928;2022-09-03T21:10:53;18.50;99.90
34698;DHT22;61391;50.922;6.928;2022-09-03T21:13:24;18.50;99.90
34698;DHT22;61391;50.922;6.928;2022-09-03T21:19:42;18.50;99.90
34698;DHT22;61391;50.922;6.928;2022-09-03T21:21:56;18.50;99.90
34698;DHT22;61391;50.922;6.928;2022-09-03T21:24:30;18.50;99.90
34698;DHT22;61391;50.922;6.928;2022-09-03T21:27:02;18.50;99.90